Home > Products > Valid Products > TAF

000
FTUS42 KMHX 061740
TAFEWN
TAF
KEWN 061740Z 0618/0718 12008KT P6SM BKN300
     FM070900 05004KT P6SM BKN200
     FM071200 06012G20KT P6SM SHRA SCT015 BKN030 OVC100=



000
FTUS42 KMHX 061740
TAFEWN
TAF
KEWN 061740Z 0618/0718 12008KT P6SM BKN300
     FM070900 05004KT P6SM BKN200
     FM071200 06012G20KT P6SM SHRA SCT015 BKN030 OVC100=



000
FTUS42 KMHX 061120
TAFEWN
TAF
KEWN 061120Z 0612/0712 00000KT P6SM BKN250
     FM061400 15011KT P6SM BKN250
     FM070900 05005KT P6SM BKN050=



000
FTUS42 KMHX 061120
TAFEWN
TAF
KEWN 061120Z 0612/0712 00000KT P6SM BKN250
     FM061400 15011KT P6SM BKN250
     FM070900 05005KT P6SM BKN050=



000
FTUS42 KMHX 060536
TAFEWN
TAF
KEWN 060536Z 0606/0706 00000KT P6SM BKN250
     FM060930 00000KT 3SM BR BKN250
     FM061200 VRB03KT P6SM BKN250
     FM061400 15011KT P6SM BKN250=



000
FTUS42 KMHX 052322
TAFEWN
TAF
KEWN 052322Z 0600/0624 18004KT P6SM BKN250
     FM060930 00000KT 3SM BR BKN250
     FM061200 VRB03KT P6SM BKN250
     FM061400 15011KT P6SM BKN250=



000
FTUS42 KMHX 051725
TAFEWN
TAF
KEWN 051725Z 0518/0618 09007KT P6SM SCT250
     FM060000 16004KT P6SM SKC
     FM060900 00000KT 3SM BR SKC
     FM061100 VRB03KT P6SM SCT250
     FM061400 12007KT P6SM SCT250=



000
FTUS42 KMHX 051725
TAFEWN
TAF
KEWN 051725Z 0518/0618 09007KT P6SM SCT250
     FM060000 16004KT P6SM SKC
     FM060900 00000KT 3SM BR SKC
     FM061100 VRB03KT P6SM SCT250
     FM061400 12007KT P6SM SCT250=



000
FTUS42 KMHX 051120
TAFEWN
TAF
KEWN 051120Z 0512/0612 00000KT P6SM SKC
     FM051400 20007KT P6SM SCT070
     FM060000 18005KT P6SM SKC=



000
FTUS42 KMHX 050520
TAFEWN
TAF
KEWN 050520Z 0506/0606 00000KT P6SM SKC
     FM051400 20007KT P6SM SCT070
     FM060000 18005KT P6SM SKC=



000
FTUS42 KMHX 050520
TAFEWN
TAF
KEWN 050520Z 0506/0606 00000KT P6SM SKC
     FM051400 20007KT P6SM SCT070
     FM060000 18005KT P6SM SKC=



000
FTUS42 KMHX 042320
TAFEWN
TAF
KEWN 042320Z 0500/0524 18007KT P6SM SKC
     FM050500 18002KT P6SM SKC
     FM051400 20007KT P6SM SCT070=



000
FTUS42 KMHX 042320
TAFEWN
TAF
KEWN 042320Z 0500/0524 18007KT P6SM SKC
     FM050500 18002KT P6SM SKC
     FM051400 20007KT P6SM SCT070=



000
FTUS42 KMHX 041738
TAFEWN
TAF
KEWN 041738Z 0418/0518 19007KT P6SM SCT070
     FM050500 00000KT P6SM SKC
     FM051400 20007KT P6SM SCT070=



000
FTUS42 KMHX 041738
TAFEWN
TAF
KEWN 041738Z 0418/0518 19007KT P6SM SCT070
     FM050500 00000KT P6SM SKC
     FM051400 20007KT P6SM SCT070=



000
FTUS42 KMHX 041120
TAFEWN
TAF
KEWN 041120Z 0412/0512 00000KT P6SM SKC
     FM041600 19007KT P6SM FEW070
     FM050000 18003KT P6SM SKC=



000
FTUS42 KMHX 041120
TAFEWN
TAF
KEWN 041120Z 0412/0512 00000KT P6SM SKC
     FM041600 19007KT P6SM FEW070
     FM050000 18003KT P6SM SKC=



000
FTUS42 KMHX 040523
TAFEWN
TAF
KEWN 040523Z 0406/0506 23004KT P6SM SKC
     FM041600 19007KT P6SM FEW070
     FM050000 18003KT P6SM SKC=



000
FTUS42 KMHX 040523
TAFEWN
TAF
KEWN 040523Z 0406/0506 23004KT P6SM SKC
     FM041600 19007KT P6SM FEW070
     FM050000 18003KT P6SM SKC=



000
FTUS42 KMHX 032321
TAFEWN
TAF
KEWN 032321Z 0400/0424 VRB03KT P6SM SKC
     FM041600 19007KT P6SM FEW070=



000
FTUS42 KMHX 032321
TAFEWN
TAF
KEWN 032321Z 0400/0424 VRB03KT P6SM SKC
     FM041600 19007KT P6SM FEW070=



    US Dept of Commerce
    National Oceanic and Atmospheric Administration
    National Weather Service
    1325 East West Highway
    Silver Spring, MD 20910
    Page Author: NWS Internet Services Team
Disclaimer
Information Quality
Credits
Glossary
Privacy Policy
Freedom of Information Act (FOIA)
About Us
Career Opportunities